Time;durP1;ratioP1;P1;durP2;ratioP2;P2;SDS_P1;SDS_P2;PMS_P1;PMS_P2;Temp;Humidity;BMP_temperature;BMP_pressure;BME280_temperature;BME280_humidity;BME280_pressure;Samples;Min_cycle;Max_cycle;Signal;HPM_P1;HPM_P2
2022/06/06 00:01:21;;;;;;;11.50;7.85;;;16.70;99.90;;;;;;5061102;28;20069;-84
2022/06/06 00:03:48;;;;;;;10.63;8.00;;;16.70;99.90;;;;;;5046338;28;20056;-84
2022/06/06 00:06:23;;;;;;;9.15;6.80;;;16.70;99.90;;;;;;5036329;28;20076;-82
2022/06/06 00:08:48;;;;;;;11.95;8.55;;;16.60;99.90;;;;;;5029904;28;20400;-83
2022/06/06 00:11:15;;;;;;;11.30;8.93;;;16.60;99.90;;;;;;5040432;28;20049;-82
2022/06/06 00:13:44;;;;;;;12.52;8.10;;;16.60;99.90;;;;;;5042361;28;20106;-83
2022/06/06 00:16:10;;;;;;;12.50;8.00;;;16.60;99.90;;;;;;5041233;28;20033;-84
2022/06/06 00:18:38;;;;;;;12.20;9.73;;;16.50;99.90;;;;;;5043410;28;20041;-84
2022/06/06 00:21:07;;;;;;;12.93;8.43;;;16.60;99.90;;;;;;5041230;28;20583;-83
2022/06/06 00:23:33;;;;;;;12.27;9.60;;;16.50;99.90;;;;;;5043749;28;20036;-83
2022/06/06 00:25:59;;;;;;;13.07;9.48;;;16.50;99.90;;;;;;5044902;28;20106;-84
2022/06/06 00:28:25;;;;;;;10.82;8.43;;;16.40;99.90;;;;;;5046157;28;20045;-86
2022/06/06 00:30:56;;;;;;;11.50;8.43;;;16.50;99.90;;;;;;5040505;28;20182;-83
2022/06/06 00:36:06;;;;;;;12.23;9.35;;;16.40;99.90;;;;;;5042389;28;20052;-84
2022/06/06 00:38:32;;;;;;;15.10;9.05;;;16.40;99.90;;;;;;5034720;28;20102;-85
2022/06/06 00:40:59;;;;;;;11.60;8.65;;;16.40;99.90;;;;;;5034853;28;20044;-85
2022/06/06 00:43:25;;;;;;;9.88;8.68;;;16.40;99.90;;;;;;5035255;28;20442;-84
2022/06/06 00:45:59;;;;;;;11.30;8.20;;;16.40;99.90;;;;;;5033209;28;20401;-85
2022/06/06 00:48:35;;;;;;;12.23;9.38;;;16.30;99.90;;;;;;5028335;28;20075;-84
2022/06/06 00:51:03;;;;;;;11.52;8.52;;;16.30;99.90;;;;;;5042782;28;20102;-84
2022/06/06 00:53:43;;;;;;;10.07;7.68;;;16.30;99.90;;;;;;5042599;28;20033;-85
2022/06/06 00:56:26;;;;;;;14.05;9.30;;;16.30;99.90;;;;;;5044906;28;20516;-83
2022/06/06 00:59:28;;;;;;;10.38;8.45;;;16.30;99.90;;;;;;5046149;28;20209;-85
2022/06/06 01:01:55;;;;;;;13.35;9.18;;;16.30;99.90;;;;;;5043772;28;20092;-85
2022/06/06 01:04:23;;;;;;;12.10;8.95;;;16.30;99.90;;;;;;5046219;28;20045;-86
2022/06/06 01:06:52;;;;;;;12.48;8.07;;;16.20;99.90;;;;;;5035303;28;20077;-85
2022/06/06 01:09:20;;;;;;;12.43;9.55;;;16.20;99.90;;;;;;5044473;28;20141;-86
2022/06/06 01:11:53;;;;;;;14.48;9.93;;;16.20;99.90;;;;;;5048558;28;20045;-86
2022/06/06 01:14:21;;;;;;;10.57;8.32;;;16.30;99.90;;;;;;5039416;28;20040;-85
2022/06/06 01:17:12;;;;;;;13.00;9.85;;;16.20;99.90;;;;;;5050541;28;20052;-85
2022/06/06 01:19:58;;;;;;;12.57;9.95;;;16.20;99.90;;;;;;5034943;28;20068;-87
2022/06/06 01:23:15;;;;;;;13.45;9.77;;;16.10;99.90;;;;;;5044228;28;20064;-86
2022/06/06 01:26:19;;;;;;;15.30;10.70;;;16.10;99.90;;;;;;5046600;28;20045;-85
2022/06/06 01:28:54;;;;;;;14.02;10.05;;;16.10;99.90;;;;;;5049169;28;20166;-86
2022/06/06 01:31:48;;;;;;;18.67;11.32;;;16.00;99.90;;;;;;5046053;28;20053;-86
2022/06/06 01:34:23;;;;;;;18.90;12.20;;;16.00;99.90;;;;;;5043051;28;20056;-85
2022/06/06 01:37:00;;;;;;;20.88;12.18;;;16.00;99.90;;;;;;5046665;28;20453;-85
2022/06/06 01:39:28;;;;;;;24.85;13.40;;;16.00;99.90;;;;;;5038070;28;20496;-85
2022/06/06 01:42:11;;;;;;;21.88;12.20;;;16.10;99.90;;;;;;5048179;28;20602;-85
2022/06/06 01:44:44;;;;;;;17.33;11.38;;;16.00;99.90;;;;;;5048380;28;20036;-87
2022/06/06 01:47:23;;;;;;;19.98;11.82;;;15.90;99.90;;;;;;5041592;28;20034;-88
2022/06/06 01:49:49;;;;;;;27.58;12.48;;;15.90;99.90;;;;;;5050889;28;20029;-87
2022/06/06 01:52:16;;;;;;;26.27;12.68;;;15.80;99.90;;;;;;5051031;28;20060;-89
2022/06/06 01:54:44;;;;;;;24.58;12.07;;;15.80;99.90;;;;;;5040834;28;20053;-89
2022/06/06 01:57:14;;;;;;;21.83;12.52;;;15.70;99.90;;;;;;5043938;28;20052;-85
2022/06/06 01:59:40;;;;;;;20.33;11.70;;;15.70;99.90;;;;;;5048664;28;20052;-88
2022/06/06 02:02:06;;;;;;;21.85;10.93;;;15.70;99.90;;;;;;5046854;28;20388;-88
2022/06/06 02:04:32;;;;;;;18.25;10.73;;;15.60;99.90;;;;;;5049639;28;20037;-87
2022/06/06 02:06:57;;;;;;;13.48;9.50;;;15.60;99.90;;;;;;5043804;28;20037;-88
2022/06/06 02:09:23;;;;;;;17.58;9.57;;;15.50;99.90;;;;;;5045873;28;20489;-86
2022/06/06 02:11:49;;;;;;;23.02;9.40;;;15.50;99.90;;;;;;5043319;28;20045;-89
2022/06/06 02:14:18;;;;;;;17.45;8.95;;;15.50;99.90;;;;;;5047794;28;20124;-88
2022/06/06 02:16:43;;;;;;;15.50;8.15;;;15.40;99.90;;;;;;5050321;28;20044;-87
2022/06/06 02:19:11;;;;;;;18.48;8.75;;;15.30;99.90;;;;;;5051875;28;20056;-85
2022/06/06 02:21:37;;;;;;;19.65;8.25;;;15.30;99.90;;;;;;5069746;28;21647;-87
2022/06/06 02:24:03;;;;;;;15.50;8.10;;;15.30;99.90;;;;;;5047567;28;20079;-85
2022/06/06 02:26:29;;;;;;;13.10;7.30;;;15.30;99.90;;;;;;5049214;28;20437;-86
2022/06/06 02:28:55;;;;;;;10.68;6.57;;;15.20;99.90;;;;;;5041276;28;20088;-85
2022/06/06 02:31:23;;;;;;;11.90;6.72;;;15.20;99.90;;;;;;5049818;28;20461;-85
2022/06/06 02:33:49;;;;;;;12.75;6.57;;;15.10;99.90;;;;;;5053749;28;20109;-88
2022/06/06 02:36:14;;;;;;;11.85;6.63;;;15.10;99.90;;;;;;5050861;28;20127;-86
2022/06/06 02:38:40;;;;;;;15.55;6.43;;;15.10;99.90;;;;;;5048806;28;20499;-88
2022/06/06 02:41:08;;;;;;;11.88;6.25;;;15.00;99.90;;;;;;5050341;28;20040;-85
2022/06/06 02:43:42;;;;;;;11.15;5.35;;;15.00;99.90;;;;;;5048505;28;20447;-88
2022/06/06 02:46:10;;;;;;;9.82;5.57;;;15.00;99.90;;;;;;5035163;28;20053;-88
2022/06/06 02:48:36;;;;;;;13.13;5.68;;;14.90;99.90;;;;;;5043269;28;20076;-87
2022/06/06 02:51:03;;;;;;;15.75;6.15;;;14.90;99.90;;;;;;5041936;28;20068;-85
2022/06/06 02:53:29;;;;;;;10.88;5.70;;;14.90;99.90;;;;;;5048948;28;20051;-86
2022/06/06 02:55:56;;;;;;;13.80;5.57;;;14.90;99.90;;;;;;5037014;28;20096;-87
2022/06/06 02:58:25;;;;;;;9.75;5.07;;;14.90;99.90;;;;;;5063128;28;20045;-88
2022/06/06 03:01:04;;;;;;;8.52;5.13;;;14.90;99.90;;;;;;5035173;28;20116;-87
2022/06/06 03:03:30;;;;;;;9.73;5.05;;;14.90;99.90;;;;;;5041514;28;20053;-89
2022/06/06 03:06:05;;;;;;;14.23;5.68;;;14.90;99.90;;;;;;5047129;28;20184;-85
2022/06/06 03:09:01;;;;;;;12.45;5.55;;;14.80;99.90;;;;;;5042551;28;20076;-88
2022/06/06 03:11:39;;;;;;;9.65;4.80;;;14.80;99.90;;;;;;5040828;28;20076;-89
2022/06/06 03:14:37;;;;;;;9.35;6.35;;;14.70;99.90;;;;;;5054147;28;20036;-84
2022/06/06 03:20:54;;;;;;;11.13;6.18;;;14.70;99.90;;;;;;5037129;28;20064;-89
2022/06/06 03:23:57;;;;;;;9.60;5.15;;;14.70;99.90;;;;;;5039915;28;20041;-85
2022/06/06 03:26:54;;;;;;;13.57;6.18;;;14.70;99.90;;;;;;5048730;28;20536;-87
2022/06/06 03:30:00;;;;;;;9.90;5.65;;;14.60;99.90;;;;;;5048308;28;20063;-84
2022/06/06 03:32:38;;;;;;;11.52;6.75;;;14.60;99.90;;;;;;5037889;28;20127;-89
2022/06/06 03:35:29;;;;;;;10.95;6.78;;;14.60;99.90;;;;;;5035782;28;20055;-90
2022/06/06 03:38:13;;;;;;;12.57;7.85;;;14.60;99.90;;;;;;5034333;28;20206;-88
2022/06/06 03:41:00;;;;;;;10.63;6.55;;;14.60;99.90;;;;;;5032567;28;20037;-85
2022/06/06 03:43:41;;;;;;;11.77;6.70;;;14.60;99.90;;;;;;5039636;28;20186;-87
2022/06/06 03:46:26;;;;;;;12.93;6.97;;;14.60;99.90;;;;;;5047916;28;20867;-88
2022/06/06 03:49:23;;;;;;;10.38;6.13;;;14.60;99.90;;;;;;5048473;28;20040;-90
2022/06/06 03:52:06;;;;;;;11.38;6.63;;;14.60;99.90;;;;;;5045118;28;20045;-88
2022/06/06 03:54:46;;;;;;;10.48;6.78;;;14.50;99.90;;;;;;5048542;28;20451;-89
2022/06/06 03:57:22;;;;;;;7.03;5.82;;;14.50;99.90;;;;;;5048171;28;20045;-86
2022/06/06 03:59:54;;;;;;;8.32;5.97;;;14.50;99.90;;;;;;5037243;28;20146;-87
2022/06/06 04:02:25;;;;;;;7.35;5.78;;;14.50;99.90;;;;;;5036247;28;20426;-85
2022/06/06 04:04:54;;;;;;;9.77;5.68;;;14.50;99.90;;;;;;5047136;28;20080;-89
2022/06/06 04:07:20;;;;;;;7.55;5.63;;;14.50;99.90;;;;;;5045085;28;20390;-85
2022/06/06 04:09:47;;;;;;;7.93;5.60;;;14.50;99.90;;;;;;5068354;28;20040;-88
2022/06/06 04:12:18;;;;;;;7.70;5.78;;;14.50;99.90;;;;;;5030810;28;20041;-87
2022/06/06 04:15:00;;;;;;;;;;;14.50;99.90;;;;;;5044812;28;22187;-86
2022/06/06 04:17:40;;;;;;;8.38;4.97;;;14.50;99.90;;;;;;5030596;28;20014;-85
2022/06/06 04:20:30;;;;;;;8.02;5.20;;;14.50;99.90;;;;;;5039886;28;20040;-82
2022/06/06 04:23:15;;;;;;;7.53;5.07;;;14.50;99.90;;;;;;5038734;28;20044;-86
2022/06/06 04:25:59;;;;;;;9.32;5.32;;;14.50;99.90;;;;;;5048211;28;20036;-87
2022/06/06 04:28:54;;;;;;;9.30;4.97;;;14.50;99.90;;;;;;5046967;28;20551;-85
2022/06/06 04:31:25;;;;;;;7.70;5.50;;;14.50;99.90;;;;;;5036827;28;20041;-88
2022/06/06 04:34:03;;;;;;;6.33;4.90;;;14.60;99.90;;;;;;5048059;28;20044;-89
2022/06/06 04:37:07;;;;;;;6.68;4.80;;;14.60;99.90;;;;;;5036714;28;20388;-88
2022/06/06 04:39:58;;;;;;;6.20;4.70;;;14.60;99.90;;;;;;5040302;28;20057;-88
2022/06/06 04:43:05;;;;;;;6.07;4.30;;;14.50;99.90;;;;;;5036663;28;20061;-87
2022/06/06 04:45:42;;;;;;;6.53;4.30;;;14.50;99.90;;;;;;5047579;28;20056;-85
2022/06/06 04:48:19;;;;;;;6.50;4.32;;;14.50;99.90;;;;;;5033783;28;20111;-88
2022/06/06 04:50:45;;;;;;;6.53;4.15;;;14.50;99.90;;;;;;5051901;28;20083;-89
2022/06/06 04:53:18;;;;;;;6.07;3.63;;;14.50;99.90;;;;;;5048227;28;20041;-88
2022/06/06 04:55:46;;;;;;;5.90;3.95;;;14.60;99.90;;;;;;5039429;28;20057;-87
2022/06/06 04:58:15;;;;;;;7.72;4.32;;;14.60;99.90;;;;;;5044573;28;20095;-88
2022/06/06 05:00:42;;;;;;;7.07;3.55;;;14.60;99.90;;;;;;5041657;28;20049;-87
2022/06/06 05:03:13;;;;;;;4.13;3.22;;;14.60;99.90;;;;;;5048102;28;20302;-85
2022/06/06 05:05:57;;;;;;;;;;;14.60;99.90;;;;;;5040993;28;20541;-87
2022/06/06 05:08:56;;;;;;;3.53;2.53;;;14.50;99.90;;;;;;5048926;28;20369;-85
2022/06/06 05:11:28;;;;;;;3.75;1.98;;;14.50;99.90;;;;;;5047037;28;20500;-84
2022/06/06 05:14:06;;;;;;;2.88;1.58;;;14.50;99.90;;;;;;5049528;28;20148;-84
2022/06/06 05:16:40;;;;;;;2.50;1.80;;;14.60;99.90;;;;;;5033065;28;20041;-84
2022/06/06 05:19:57;;;;;;;5.43;2.22;;;14.50;99.90;;;;;;5046855;28;20037;-84
2022/06/06 05:22:44;;;;;;;3.95;3.10;;;14.50;99.90;;;;;;5045497;28;20177;-83
2022/06/06 05:25:35;;;;;;;6.00;3.60;;;14.50;99.90;;;;;;5049462;28;20056;-84
2022/06/06 05:28:38;;;;;;;7.15;3.05;;;14.50;99.90;;;;;;5048864;28;20118;-83
2022/06/06 05:31:23;;;;;;;5.70;3.15;;;14.50;99.90;;;;;;5075491;28;20060;-86
2022/06/06 05:34:13;;;;;;;4.05;3.08;;;14.50;99.90;;;;;;5050376;28;20608;-85
2022/06/06 05:36:38;;;;;;;4.63;3.30;;;14.50;99.90;;;;;;5045901;28;20053;-82
2022/06/06 05:39:40;;;;;;;7.03;3.13;;;14.40;99.90;;;;;;5037572;28;20049;-85
2022/06/06 05:42:30;;;;;;;5.43;3.40;;;14.40;99.90;;;;;;5046736;28;20041;-85
2022/06/06 05:45:21;;;;;;;6.93;3.60;;;14.40;99.90;;;;;;5047122;28;20099;-84
2022/06/06 05:48:04;;;;;;;6.70;4.20;;;14.30;99.90;;;;;;5041419;28;20128;-84
2022/06/06 05:51:01;;;;;;;8.13;4.05;;;14.30;99.90;;;;;;5074078;28;20311;-84
2022/06/06 05:53:30;;;;;;;8.20;4.70;;;14.30;99.90;;;;;;5040859;28;20106;-84
2022/06/06 05:56:19;;;;;;;8.27;4.72;;;14.30;99.90;;;;;;5048281;28;20115;-85
2022/06/06 05:59:09;;;;;;;8.13;5.13;;;14.30;99.90;;;;;;5051899;28;20111;-85
2022/06/06 06:01:56;;;;;;;8.70;5.53;;;14.30;99.90;;;;;;5074432;28;20132;-85
2022/06/06 06:04:35;;;;;;;8.82;5.50;;;14.20;99.90;;;;;;5040582;28;20136;-87
2022/06/06 06:07:21;;;;;;;11.05;5.10;;;14.20;99.90;;;;;;5041309;28;20053;-85
2022/06/06 06:09:59;;;;;;;10.10;5.50;;;14.30;99.90;;;;;;5050974;28;20057;-88
2022/06/06 06:12:42;;;;;;;10.07;4.97;;;14.30;99.90;;;;;;5064189;28;20048;-84
2022/06/06 06:15:39;;;;;;;9.05;5.38;;;14.20;99.90;;;;;;5079409;28;20496;-84
2022/06/06 06:18:28;;;;;;;9.65;5.10;;;14.30;99.90;;;;;;5045319;28;20501;-87
2022/06/06 06:21:01;;;;;;;9.68;4.88;;;14.20;99.90;;;;;;5075999;28;20060;-88
2022/06/06 06:23:32;;;;;;;9.82;5.40;;;14.20;99.90;;;;;;5067426;28;20045;-87
2022/06/06 06:26:00;;;;;;;;;;;14.20;99.90;;;;;;5070470;28;20079;-88
2022/06/06 06:28:28;;;;;;;8.88;5.00;;;14.20;99.90;;;;;;5049422;28;19921;-84
2022/06/06 06:31:22;;;;;;;9.98;5.60;;;14.00;99.90;;;;;;5046741;28;20076;-85
2022/06/06 06:34:03;;;;;;;8.90;5.30;;;14.20;99.90;;;;;;5049750;28;20128;-85
2022/06/06 06:36:41;;;;;;;10.68;6.10;;;14.10;99.90;;;;;;5044623;28;20493;-83
2022/06/06 06:39:29;;;;;;;10.45;5.35;;;14.10;99.90;;;;;;5048432;28;20049;-86
2022/06/06 06:41:57;;;;;;;13.75;5.82;;;14.10;99.90;;;;;;5074452;28;20049;-85
2022/06/06 06:44:29;;;;;;;11.57;5.22;;;14.10;99.90;;;;;;5050555;28;20041;-83
2022/06/06 06:46:57;;;;;;;8.52;4.90;;;14.20;99.90;;;;;;5048871;28;20037;-86
2022/06/06 06:49:44;;;;;;;7.10;4.40;;;14.20;99.90;;;;;;5033870;28;20496;-85
2022/06/06 06:52:19;;;;;;;7.10;4.05;;;14.10;99.90;;;;;;5043094;28;20456;-83
2022/06/06 06:55:02;;;;;;;6.22;3.80;;;14.00;99.90;;;;;;5042897;28;20064;-82
2022/06/06 06:58:01;;;;;;;4.30;2.97;;;14.10;99.90;;;;;;5047699;28;20049;-83
2022/06/06 07:00:34;;;;;;;3.80;2.55;;;14.10;99.90;;;;;;5049053;28;20086;-85
2022/06/06 07:10:05;;;;;;;6.53;2.40;;;14.10;99.90;;;;;;5032575;28;20077;-82
2022/06/06 07:12:45;;;;;;;4.40;2.90;;;14.20;99.90;;;;;;5047497;28;20729;-84
2022/06/06 07:15:48;;;;;;;8.52;2.90;;;14.20;99.90;;;;;;5040912;28;20057;-84
2022/06/06 07:18:16;;;;;;;8.02;2.88;;;14.30;99.90;;;;;;5080837;28;20063;-83
2022/06/06 07:20:46;;;;;;;6.55;2.80;;;14.30;99.90;;;;;;5044347;28;20045;-82
2022/06/06 07:23:14;;;;;;;8.75;3.15;;;14.40;99.90;;;;;;5034301;28;20042;-81
2022/06/06 07:25:43;;;;;;;6.57;2.70;;;14.40;99.90;;;;;;5036068;28;20051;-80
2022/06/06 07:28:18;;;;;;;9.43;3.17;;;14.50;99.90;;;;;;5044881;28;20053;-81
2022/06/06 07:31:26;;;;;;;6.03;2.78;;;14.50;99.90;;;;;;5047337;28;20110;-80
2022/06/06 07:34:16;;;;;;;6.63;2.78;;;14.50;99.90;;;;;;5048984;28;20049;-83
2022/06/06 07:36:53;;;;;;;6.38;2.30;;;14.50;99.90;;;;;;5046385;28;20052;-82
2022/06/06 07:39:26;;;;;;;6.22;2.40;;;14.50;99.90;;;;;;5047413;28;20037;-81
2022/06/06 07:42:27;;;;;;;6.60;2.38;;;14.50;99.90;;;;;;5037447;28;20045;-81
2022/06/06 07:45:09;;;;;;;9.27;2.70;;;14.60;99.90;;;;;;5030683;28;20049;-84
2022/06/06 07:48:09;;;;;;;10.20;2.88;;;14.70;99.90;;;;;;5040297;28;20468;-81
2022/06/06 07:50:59;;;;;;;7.32;2.65;;;14.80;99.90;;;;;;5035902;28;20115;-80
2022/06/06 07:53:56;;;;;;;5.60;2.10;;;14.80;99.90;;;;;;5041616;28;20124;-80
2022/06/06 07:56:57;;;;;;;5.32;2.10;;;14.80;99.90;;;;;;5046396;28;20049;-81
2022/06/06 07:59:57;;;;;;;5.50;2.47;;;14.80;99.90;;;;;;5026408;28;20049;-80
2022/06/06 08:02:44;;;;;;;4.47;2.22;;;14.90;99.90;;;;;;5076723;28;20045;-82
2022/06/06 08:05:21;;;;;;;5.45;2.10;;;15.00;99.90;;;;;;5040742;28;20041;-81
2022/06/06 08:07:59;;;;;;;6.18;2.55;;;15.10;99.90;;;;;;5044548;28;20136;-81
2022/06/06 08:10:45;;;;;;;4.57;2.28;;;15.20;99.90;;;;;;5039586;28;20045;-80
2022/06/06 08:13:30;;;;;;;7.43;1.95;;;15.30;99.90;;;;;;5037980;28;20044;-81
2022/06/06 08:16:24;;;;;;;6.68;2.65;;;15.40;99.90;;;;;;5044288;28;20041;-81
2022/06/06 08:19:08;;;;;;;6.53;2.58;;;15.50;99.90;;;;;;5041043;28;20401;-81
2022/06/06 08:21:39;;;;;;;7.10;2.28;;;15.50;99.90;;;;;;5031935;28;20186;-81
2022/06/06 08:24:12;;;;;;;3.83;2.42;;;15.60;99.90;;;;;;5041862;28;20131;-80
2022/06/06 08:26:46;;;;;;;5.93;2.47;;;15.60;99.90;;;;;;5048005;28;20060;-82
2022/06/06 08:29:12;;;;;;;;;;;15.60;99.90;;;;;;5037365;28;20902;-81
2022/06/06 08:31:38;;;;;;;7.63;2.85;;;15.60;99.90;;;;;;5041095;28;19925;-81
2022/06/06 08:34:04;;;;;;;8.23;2.80;;;15.60;99.90;;;;;;5033019;28;20045;-82
2022/06/06 08:36:35;;;;;;;6.30;3.20;;;15.60;99.90;;;;;;5025997;28;20041;-81
2022/06/06 08:39:10;;;;;;;6.32;2.70;;;15.80;99.90;;;;;;5028070;28;20120;-81
2022/06/06 08:42:02;;;;;;;5.80;3.22;;;15.80;99.90;;;;;;5036108;28;20040;-82
2022/06/06 08:44:59;;;;;;;7.65;3.20;;;15.90;99.90;;;;;;5026961;28;20102;-81
2022/06/06 08:48:02;;;;;;;6.78;3.50;;;16.00;99.90;;;;;;5045422;28;20544;-82
2022/06/06 08:50:54;;;;;;;7.22;3.88;;;16.10;99.90;;;;;;5046693;28;20132;-84
2022/06/06 08:54:06;;;;;;;7.00;4.35;;;16.10;99.90;;;;;;5025992;28;20050;-83
2022/06/06 08:56:52;;;;;;;8.50;3.50;;;16.20;99.90;;;;;;5029418;28;20071;-79
2022/06/06 08:59:45;;;;;;;8.13;3.60;;;16.30;99.90;;;;;;5044992;28;20045;-79
2022/06/06 09:02:28;;;;;;;10.00;3.20;;;16.30;99.90;;;;;;5041620;28;20055;-79
2022/06/06 09:05:42;;;;;;;14.00;4.25;;;16.30;99.90;;;;;;5033982;28;20132;-79
2022/06/06 09:08:45;;;;;;;5.43;2.85;;;16.30;99.90;;;;;;5036294;28;20057;-79
2022/06/06 09:11:39;;;;;;;6.60;2.78;;;16.30;99.90;;;;;;5046843;28;20055;-79
2022/06/06 09:14:17;;;;;;;5.47;3.13;;;16.30;99.90;;;;;;5044437;28;20071;-79
2022/06/06 09:17:10;;;;;;;8.50;2.45;;;16.30;99.90;;;;;;5047361;28;20206;-78
2022/06/06 09:20:14;;;;;;;6.45;2.50;;;16.30;99.90;;;;;;5046904;28;20377;-78
2022/06/06 09:23:02;;;;;;;7.75;3.13;;;16.30;99.90;;;;;;5043114;28;20041;-80
2022/06/06 09:25:43;;;;;;;7.35;2.78;;;16.30;99.90;;;;;;5045921;28;20049;-78
2022/06/06 09:28:24;;;;;;;6.28;2.83;;;16.20;99.90;;;;;;5037273;28;20374;-78
2022/06/06 09:30:59;;;;;;;5.82;2.75;;;16.10;99.90;;;;;;5041544;28;20670;-78
2022/06/06 09:34:03;;;;;;;4.45;2.33;;;16.20;99.90;;;;;;5040847;28;20398;-78
2022/06/06 09:37:06;;;;;;;7.18;3.30;;;16.30;99.90;;;;;;5029720;28;20665;-79
2022/06/06 09:39:43;;;;;;;5.68;2.50;;;16.30;99.90;;;;;;5063696;28;20436;-78
2022/06/06 09:42:30;;;;;;;8.30;2.88;;;16.40;99.90;;;;;;5031088;28;20524;-78
2022/06/06 09:45:29;;;;;;;7.85;2.58;;;16.40;99.90;;;;;;5030751;28;20056;-78
2022/06/06 09:48:34;;;;;;;5.38;2.55;;;16.50;99.90;;;;;;5030569;28;20057;-77
2022/06/06 09:51:21;;;;;;;10.63;2.65;;;16.60;99.90;;;;;;5030763;28;20053;-79
2022/06/06 09:59:01;;;;;;;6.03;2.88;;;16.60;99.90;;;;;;5063590;28;20461;-77
2022/06/06 10:00:00;;;;;;;8.82;2.70;;;16.60;99.90;;;;;;5048396;28;20051;-76
2022/06/06 10:02:53;;;;;;;5.82;2.15;;;16.60;99.90;;;;;;5049478;28;20045;-77
2022/06/06 10:05:58;;;;;;;9.43;2.25;;;16.80;99.90;;;;;;5049414;28;20091;-77
2022/06/06 10:08:33;;;;;;;8.73;2.35;;;16.80;99.90;;;;;;5047186;28;20079;-77
2022/06/06 10:11:29;;;;;;;8.13;1.73;;;16.90;99.90;;;;;;5048270;28;20094;-78
2022/06/06 10:13:58;;;;;;;5.45;1.80;;;17.00;99.90;;;;;;5049398;28;20075;-77
2022/06/06 10:16:39;;;;;;;6.15;1.55;;;17.10;99.90;;;;;;5046253;28;20053;-78
2022/06/06 10:19:16;;;;;;;9.10;1.45;;;17.20;99.90;;;;;;5063636;28;20081;-78
2022/06/06 10:22:00;;;;;;;4.20;1.30;;;17.20;99.90;;;;;;5028179;28;20053;-78
2022/06/06 10:24:47;;;;;;;5.30;1.35;;;17.30;99.90;;;;;;5029479;28;20037;-76
2022/06/06 10:27:25;;;;;;;2.67;1.02;;;17.40;99.90;;;;;;5032512;28;20056;-78
2022/06/06 10:30:11;;;;;;;6.05;1.67;;;17.50;99.90;;;;;;5046255;28;20045;-77
2022/06/06 10:33:02;;;;;;;8.27;1.58;;;17.70;99.90;;;;;;5043939;28;20135;-78
2022/06/06 10:35:46;;;;;;;6.72;1.50;;;17.70;99.90;;;;;;5062730;28;20405;-77
2022/06/06 10:38:39;;;;;;;6.00;1.25;;;17.70;99.90;;;;;;5031431;28;20489;-79
2022/06/06 10:41:18;;;;;;;7.40;1.90;;;17.90;99.90;;;;;;5034710;28;20111;-78
2022/06/06 10:43:59;;;;;;;8.88;1.42;;;18.00;99.90;;;;;;5029878;28;20124;-78
2022/06/06 10:46:35;;;;;;;7.20;1.38;;;18.10;99.90;;;;;;5061410;28;20057;-76
2022/06/06 10:49:19;;;;;;;6.00;1.58;;;18.20;99.90;;;;;;5078754;28;20053;-77
2022/06/06 10:52:00;;;;;;;7.68;1.33;;;18.10;99.90;;;;;;5047541;28;20183;-77
2022/06/06 10:54:50;;;;;;;4.45;1.05;;;18.10;99.90;;;;;;5046473;28;20048;-77
2022/06/06 10:57:37;;;;;;;6.03;1.33;;;18.00;99.90;;;;;;5045887;28;20547;-76
2022/06/06 11:00:29;;;;;;;7.13;1.42;;;18.00;99.90;;;;;;5027968;28;20049;-78
2022/06/06 11:03:13;;;;;;;11.52;1.30;;;17.90;99.90;;;;;;5034565;28;20036;-77
2022/06/06 11:06:12;;;;;;;7.72;1.55;;;17.90;99.90;;;;;;5049824;28;20047;-79
2022/06/06 11:09:10;;;;;;;3.25;1.00;;;17.80;99.90;;;;;;5031854;28;20041;-78
2022/06/06 11:11:45;;;;;;;5.70;1.15;;;17.80;99.90;;;;;;5028874;28;20058;-78
2022/06/06 11:14:34;;;;;;;4.57;1.27;;;17.70;99.90;;;;;;5033006;28;20091;-78
2022/06/06 11:17:08;;;;;;;6.68;1.10;;;17.70;99.90;;;;;;5032302;28;20050;-77
2022/06/06 11:19:48;;;;;;;4.78;1.50;;;17.80;99.90;;;;;;5040589;28;20095;-79
2022/06/06 11:22:25;;;;;;;4.70;1.00;;;17.90;99.90;;;;;;5047078;28;20467;-77
2022/06/06 11:25:31;;;;;;;5.22;0.93;;;18.00;99.90;;;;;;5048506;28;20053;-77
2022/06/06 11:28:29;;;;;;;7.95;1.73;;;18.00;99.90;;;;;;5036507;28;20406;-78
2022/06/06 11:31:23;;;;;;;7.22;1.40;;;18.00;99.90;;;;;;5039806;28;20133;-79
2022/06/06 11:33:55;;;;;;;6.22;1.60;;;18.10;99.90;;;;;;5041562;28;20041;-77
2022/06/06 11:36:22;;;;;;;7.05;1.10;;;18.40;99.90;;;;;;5041481;28;20033;-79
2022/06/06 11:39:09;;;;;;;3.95;1.30;;;18.40;99.90;;;;;;5047341;28;20045;-78
2022/06/06 11:41:58;;;;;;;5.53;0.98;;;18.30;99.90;;;;;;5034353;28;20509;-77
2022/06/06 11:44:29;;;;;;;7.50;1.45;;;18.10;99.90;;;;;;5028407;28;20043;-79
2022/06/06 11:47:01;;;;;;;;;;;17.90;99.90;;;;;;5043086;28;20187;-78
2022/06/06 11:49:45;;;;;;;4.95;1.80;;;17.70;99.90;;;;;;5079672;28;19921;-78
2022/06/06 11:52:32;;;;;;;5.45;1.33;;;17.50;99.90;;;;;;5042856;28;20504;-78
2022/06/06 11:55:24;;;;;;;6.28;1.40;;;17.40;99.90;;;;;;5045850;28;20071;-78
2022/06/06 11:58:12;;;;;;;5.30;1.73;;;17.20;99.90;;;;;;5046085;28;20059;-79
2022/06/06 12:01:04;;;;;;;4.70;1.25;;;17.10;99.90;;;;;;5042513;28;20036;-79
2022/06/06 12:03:48;;;;;;;5.20;1.30;;;17.20;99.90;;;;;;5028779;28;20382;-78
2022/06/06 12:06:19;;;;;;;4.10;1.30;;;17.40;99.90;;;;;;5043338;28;20041;-77
2022/06/06 12:09:10;;;;;;;4.85;1.50;;;17.50;99.90;;;;;;5048009;28;20049;-77
2022/06/06 12:11:36;;;;;;;;;;;17.50;99.90;;;;;;5043674;28;20044;-78
2022/06/06 12:14:16;;;;;;;3.92;1.27;;;17.40;99.90;;;;;;5027139;28;19922;-80
2022/06/06 12:16:51;;;;;;;7.38;1.05;;;17.40;99.90;;;;;;5040064;28;20051;-78
2022/06/06 12:19:46;;;;;;;5.05;1.40;;;17.30;99.90;;;;;;5046496;28;20045;-80
2022/06/06 12:22:30;;;;;;;8.18;1.65;;;17.20;99.90;;;;;;5038331;28;20040;-78
2022/06/06 12:25:16;;;;;;;3.55;1.10;;;17.10;99.90;;;;;;5042713;28;20598;-79
2022/06/06 12:28:10;;;;;;;5.00;1.70;;;17.20;99.90;;;;;;5033006;28;20052;-79
2022/06/06 12:30:48;;;;;;;5.47;1.55;;;17.20;99.90;;;;;;5045447;28;20142;-79
2022/06/06 12:33:23;;;;;;;7.68;1.63;;;17.40;99.90;;;;;;5046619;28;20052;-79
2022/06/06 12:36:21;;;;;;;9.32;1.55;;;17.50;99.90;;;;;;5042561;28;20142;-77
2022/06/06 12:39:06;;;;;;;4.38;1.40;;;17.60;99.90;;;;;;5045799;28;20084;-78
2022/06/06 12:41:55;;;;;;;4.82;1.30;;;17.60;99.90;;;;;;5046485;28;20471;-78
2022/06/06 12:44:59;;;;;;;3.85;1.35;;;17.60;99.90;;;;;;5027994;28;20551;-79
2022/06/06 12:47:43;;;;;;;5.95;1.20;;;17.50;99.90;;;;;;5080204;28;20049;-78
2022/06/06 12:50:23;;;;;;;2.78;1.27;;;17.40;99.90;;;;;;5077305;28;20112;-78
2022/06/06 12:53:07;;;;;;;7.03;1.50;;;17.30;99.90;;;;;;5046282;28;20049;-80
2022/06/06 12:55:44;;;;;;;4.60;1.38;;;17.10;99.90;;;;;;5043032;28;20098;-79
2022/06/06 12:58:44;;;;;;;8.95;1.38;;;16.90;99.90;;;;;;5043925;28;20409;-76
2022/06/06 13:01:40;;;;;;;5.38;1.42;;;16.80;99.90;;;;;;5036139;28;20057;-79
2022/06/06 13:04:33;;;;;;;8.07;2.03;;;16.70;99.90;;;;;;5027057;28;20139;-79
2022/06/06 13:07:12;;;;;;;8.27;1.85;;;16.50;99.90;;;;;;5042838;28;20059;-78
2022/06/06 13:09:53;;;;;;;8.73;1.95;;;16.40;99.90;;;;;;5050741;28;20115;-76
2022/06/06 13:12:49;;;;;;;5.18;1.60;;;16.30;99.90;;;;;;5051247;28;20072;-78
2022/06/06 13:15:26;;;;;;;5.10;2.10;;;16.30;99.90;;;;;;5041437;28;20086;-78
2022/06/06 13:18:34;;;;;;;8.57;2.08;;;16.10;99.90;;;;;;5049599;28;20041;-78
2022/06/06 13:21:13;;;;;;;7.47;1.85;;;16.00;99.90;;;;;;4996284;28;20439;-78
2022/06/06 13:24:01;;;;;;;3.88;1.70;;;15.90;99.90;;;;;;5041371;28;20063;-77
2022/06/06 13:26:48;;;;;;;4.72;1.65;;;15.80;99.90;;;;;;5044923;28;20176;-79
2022/06/06 13:29:27;;;;;;;4.15;1.40;;;15.80;99.90;;;;;;5035039;28;20045;-78
2022/06/06 13:32:09;;;;;;;6.38;1.73;;;15.70;99.90;;;;;;5043704;28;20075;-77
2022/06/06 13:34:48;;;;;;;;;;;15.80;99.90;;;;;;5072752;28;20435;-77
2022/06/06 13:37:21;;;;;;;6.03;1.77;;;15.70;99.90;;;;;;5073121;28;19921;-78
2022/06/06 13:39:53;;;;;;;3.25;1.60;;;15.70;99.90;;;;;;5049414;28;20045;-77
2022/06/06 13:42:40;;;;;;;2.97;1.52;;;15.80;99.90;;;;;;5031428;28;20044;-77
2022/06/06 13:45:22;;;;;;;2.70;1.15;;;15.80;99.90;;;;;;5042538;28;20088;-77
2022/06/06 13:48:03;;;;;;;5.53;1.75;;;15.80;99.90;;;;;;5044871;28;20053;-77
2022/06/06 13:50:37;;;;;;;5.30;1.80;;;15.70;99.90;;;;;;5038683;28;20512;-79
2022/06/06 13:53:28;;;;;;;8.27;2.60;;;15.60;99.90;;;;;;5046500;28;20295;-76
2022/06/06 13:56:41;;;;;;;8.75;2.53;;;15.50;99.90;;;;;;5039306;28;20049;-78
2022/06/06 13:59:37;;;;;;;10.50;2.60;;;15.40;99.90;;;;;;4980001;28;20133;-77
2022/06/06 14:02:26;;;;;;;7.60;2.75;;;15.30;99.90;;;;;;5041597;28;20477;-77
2022/06/06 14:05:16;;;;;;;5.63;2.70;;;15.20;99.90;;;;;;5041859;28;20377;-78
2022/06/06 14:08:09;;;;;;;8.13;2.78;;;15.10;99.90;;;;;;5037550;28;20041;-77
2022/06/06 14:11:01;;;;;;;8.40;3.20;;;15.00;99.90;;;;;;5066679;28;20048;-77
2022/06/06 14:13:48;;;;;;;4.95;3.40;;;15.00;99.90;;;;;;5043482;28;20044;-78
2022/06/06 14:16:41;;;;;;;7.00;3.50;;;14.90;99.90;;;;;;5047186;28;20040;-76